sensor_id;sensor_type;location;lat;lon;timestamp;temperature;humidity
42615;DHT22;28754;47.700;7.924;2022-12-05T00:04:13;2.90;99.90
42615;DHT22;28754;47.700;7.924;2022-12-05T00:07:00;2.90;99.90
42615;DHT22;28754;47.700;7.924;2022-12-05T00:09:46;2.90;99.90
42615;DHT22;28754;47.700;7.924;2022-12-05T00:12:33;2.90;99.90
42615;DHT22;28754;47.700;7.924;2022-12-05T00:15:20;2.80;99.90
42615;DHT22;28754;47.700;7.924;2022-12-05T00:18:06;2.80;99.90
42615;DHT22;28754;47.700;7.924;2022-12-05T00:20:53;2.80;99.90
42615;DHT22;28754;47.700;7.924;2022-12-05T00:23:40;2.80;99.90
42615;DHT22;28754;47.700;7.924;2022-12-05T00:26:29;2.80;99.90
42615;DHT22;28754;47.700;7.924;2022-12-05T00:29:17;2.80;99.90
42615;DHT22;28754;47.700;7.924;2022-12-05T00:32:04;2.80;99.90
42615;DHT22;28754;47.700;7.924;2022-12-05T00:34:50;2.80;99.90
42615;DHT22;28754;47.700;7.924;2022-12-05T00:37:37;2.80;99.90
42615;DHT22;28754;47.700;7.924;2022-12-05T00:40:24;2.80;99.90
42615;DHT22;28754;47.700;7.924;2022-12-05T00:43:10;2.80;99.90
42615;DHT22;28754;47.700;7.924;2022-12-05T00:46:05;2.80;99.90
42615;DHT22;28754;47.700;7.924;2022-12-05T00:48:55;2.80;99.90
42615;DHT22;28754;47.700;7.924;2022-12-05T00:51:42;2.80;99.90
42615;DHT22;28754;47.700;7.924;2022-12-05T00:54:29;2.80;99.90
42615;DHT22;28754;47.700;7.924;2022-12-05T00:57:16;2.80;99.90
42615;DHT22;28754;47.700;7.924;2022-12-05T01:00:04;2.90;99.90
42615;DHT22;28754;47.700;7.924;2022-12-05T01:02:51;2.90;99.90
42615;DHT22;28754;47.700;7.924;2022-12-05T01:05:38;2.90;99.90
42615;DHT22;28754;47.700;7.924;2022-12-05T01:08:25;2.90;99.90
42615;DHT22;28754;47.700;7.924;2022-12-05T01:11:17;2.90;99.90
42615;DHT22;28754;47.700;7.924;2022-12-05T01:14:05;3.00;99.90
42615;DHT22;28754;47.700;7.924;2022-12-05T01:16:54;2.90;99.90
42615;DHT22;28754;47.700;7.924;2022-12-05T01:19:41;2.90;99.90
42615;DHT22;28754;47.700;7.924;2022-12-05T01:22:27;2.90;99.90
42615;DHT22;28754;47.700;7.924;2022-12-05T01:25:14;2.90;99.90
42615;DHT22;28754;47.700;7.924;2022-12-05T01:28:01;3.00;99.90
42615;DHT22;28754;47.700;7.924;2022-12-05T01:30:49;2.90;99.90
42615;DHT22;28754;47.700;7.924;2022-12-05T01:33:36;2.90;99.90
42615;DHT22;28754;47.700;7.924;2022-12-05T01:36:24;2.90;99.90
42615;DHT22;28754;47.700;7.924;2022-12-05T01:39:12;2.80;99.90
42615;DHT22;28754;47.700;7.924;2022-12-05T01:41:59;2.80;99.90
42615;DHT22;28754;47.700;7.924;2022-12-05T01:47:36;2.80;99.90
42615;DHT22;28754;47.700;7.924;2022-12-05T01:50:23;2.80;99.90
42615;DHT22;28754;47.700;7.924;2022-12-05T01:53:10;2.90;99.90
42615;DHT22;28754;47.700;7.924;2022-12-05T01:55:57;2.80;99.90
42615;DHT22;28754;47.700;7.924;2022-12-05T01:58:44;2.90;99.90
42615;DHT22;28754;47.700;7.924;2022-12-05T02:01:32;2.80;99.90
42615;DHT22;28754;47.700;7.924;2022-12-05T02:04:19;2.80;99.90
42615;DHT22;28754;47.700;7.924;2022-12-05T02:07:06;2.90;99.90
42615;DHT22;28754;47.700;7.924;2022-12-05T02:09:53;2.90;99.90
42615;DHT22;28754;47.700;7.924;2022-12-05T02:12:41;2.90;99.90
42615;DHT22;28754;47.700;7.924;2022-12-05T02:15:46;2.80;99.90
42615;DHT22;28754;47.700;7.924;2022-12-05T02:18:44;2.80;99.90
42615;DHT22;28754;47.700;7.924;2022-12-05T02:32:10;2.90;99.90
42615;DHT22;28754;47.700;7.924;2022-12-05T02:41:57;2.90;99.90
42615;DHT22;28754;47.700;7.924;2022-12-05T02:45:02;3.00;99.90
42615;DHT22;28754;47.700;7.924;2022-12-05T02:47:58;3.00;99.90
42615;DHT22;28754;47.700;7.924;2022-12-05T02:50:48;3.10;99.90
42615;DHT22;28754;47.700;7.924;2022-12-05T02:53:38;3.10;99.90
42615;DHT22;28754;47.700;7.924;2022-12-05T02:56:29;3.00;99.90
42615;DHT22;28754;47.700;7.924;2022-12-05T02:59:19;3.00;99.90
42615;DHT22;28754;47.700;7.924;2022-12-05T03:07:10;3.00;99.90
42615;DHT22;28754;47.700;7.924;2022-12-05T03:10:02;3.10;99.90
42615;DHT22;28754;47.700;7.924;2022-12-05T03:12:55;3.20;99.90
42615;DHT22;28754;47.700;7.924;2022-12-05T03:15:48;3.20;99.90
42615;DHT22;28754;47.700;7.924;2022-12-05T03:18:44;3.20;99.90
42615;DHT22;28754;47.700;7.924;2022-12-05T03:22:02;3.30;99.90
42615;DHT22;28754;47.700;7.924;2022-12-05T03:24:53;3.20;99.90
42615;DHT22;28754;47.700;7.924;2022-12-05T03:27:52;3.20;99.90
42615;DHT22;28754;47.700;7.924;2022-12-05T03:30:48;3.30;99.90
42615;DHT22;28754;47.700;7.924;2022-12-05T03:33:42;3.30;99.90
42615;DHT22;28754;47.700;7.924;2022-12-05T03:36:37;3.30;99.90
42615;DHT22;28754;47.700;7.924;2022-12-05T03:39:30;3.30;99.90
42615;DHT22;28754;47.700;7.924;2022-12-05T03:42:29;3.20;99.90
42615;DHT22;28754;47.700;7.924;2022-12-05T03:45:26;3.20;99.90
42615;DHT22;28754;47.700;7.924;2022-12-05T03:48:27;3.20;99.90
42615;DHT22;28754;47.700;7.924;2022-12-05T03:51:21;3.20;99.90
42615;DHT22;28754;47.700;7.924;2022-12-05T03:54:28;3.20;99.90
42615;DHT22;28754;47.700;7.924;2022-12-05T04:00:22;3.20;99.90
42615;DHT22;28754;47.700;7.924;2022-12-05T04:03:19;3.20;99.90
42615;DHT22;28754;47.700;7.924;2022-12-05T04:06:31;3.20;99.90
42615;DHT22;28754;47.700;7.924;2022-12-05T04:09:27;3.20;99.90
42615;DHT22;28754;47.700;7.924;2022-12-05T04:12:23;3.20;99.90
42615;DHT22;28754;47.700;7.924;2022-12-05T04:15:17;3.10;99.90
42615;DHT22;28754;47.700;7.924;2022-12-05T04:18:08;3.10;99.90
42615;DHT22;28754;47.700;7.924;2022-12-05T04:20:56;3.10;99.90
42615;DHT22;28754;47.700;7.924;2022-12-05T04:24:08;3.20;99.90
42615;DHT22;28754;47.700;7.924;2022-12-05T04:33:52;3.20;99.90
42615;DHT22;28754;47.700;7.924;2022-12-05T04:36:55;3.20;99.90
42615;DHT22;28754;47.700;7.924;2022-12-05T04:39:53;3.10;99.90
42615;DHT22;28754;47.700;7.924;2022-12-05T04:42:45;3.20;99.90
42615;DHT22;28754;47.700;7.924;2022-12-05T04:45:34;3.20;99.90
42615;DHT22;28754;47.700;7.924;2022-12-05T04:48:26;3.20;99.90
42615;DHT22;28754;47.700;7.924;2022-12-05T04:51:17;3.10;99.90
42615;DHT22;28754;47.700;7.924;2022-12-05T04:54:30;3.10;99.90
42615;DHT22;28754;47.700;7.924;2022-12-05T05:01:04;3.20;99.90
42615;DHT22;28754;47.700;7.924;2022-12-05T05:05:07;3.20;99.90
42615;DHT22;28754;47.700;7.924;2022-12-05T05:07:56;3.20;99.90
42615;DHT22;28754;47.700;7.924;2022-12-05T05:13:56;3.30;99.90
42615;DHT22;28754;47.700;7.924;2022-12-05T05:16:43;3.20;99.90
42615;DHT22;28754;47.700;7.924;2022-12-05T05:19:30;3.20;99.90
42615;DHT22;28754;47.700;7.924;2022-12-05T05:22:16;3.20;99.90
42615;DHT22;28754;47.700;7.924;2022-12-05T05:25:03;3.20;99.90
42615;DHT22;28754;47.700;7.924;2022-12-05T05:27:52;3.20;99.90
42615;DHT22;28754;47.700;7.924;2022-12-05T05:30:40;3.20;99.90
42615;DHT22;28754;47.700;7.924;2022-12-05T05:33:27;3.20;99.90
42615;DHT22;28754;47.700;7.924;2022-12-05T05:36:13;3.20;99.90
42615;DHT22;28754;47.700;7.924;2022-12-05T05:39:02;3.10;99.90
42615;DHT22;28754;47.700;7.924;2022-12-05T05:41:49;3.10;99.90
42615;DHT22;28754;47.700;7.924;2022-12-05T05:44:36;3.20;99.90
42615;DHT22;28754;47.700;7.924;2022-12-05T05:47:22;3.20;99.90
42615;DHT22;28754;47.700;7.924;2022-12-05T05:50:10;3.20;99.90
42615;DHT22;28754;47.700;7.924;2022-12-05T05:52:57;3.10;99.90
42615;DHT22;28754;47.700;7.924;2022-12-05T05:55:43;3.20;99.90
42615;DHT22;28754;47.700;7.924;2022-12-05T05:58:31;3.20;99.90
42615;DHT22;28754;47.700;7.924;2022-12-05T06:01:18;3.20;99.90
42615;DHT22;28754;47.700;7.924;2022-12-05T06:04:05;3.20;99.90
42615;DHT22;28754;47.700;7.924;2022-12-05T06:06:52;3.30;99.90
42615;DHT22;28754;47.700;7.924;2022-12-05T06:09:39;3.30;99.90
42615;DHT22;28754;47.700;7.924;2022-12-05T06:12:26;3.30;99.90
42615;DHT22;28754;47.700;7.924;2022-12-05T06:15:12;3.30;99.90
42615;DHT22;28754;47.700;7.924;2022-12-05T06:17:59;3.30;99.90
42615;DHT22;28754;47.700;7.924;2022-12-05T06:20:56;3.10;99.90
42615;DHT22;28754;47.700;7.924;2022-12-05T06:23:43;3.00;99.90
42615;DHT22;28754;47.700;7.924;2022-12-05T06:26:31;3.00;99.90
42615;DHT22;28754;47.700;7.924;2022-12-05T06:29:17;3.00;99.90
42615;DHT22;28754;47.700;7.924;2022-12-05T06:32:04;3.00;99.90
42615;DHT22;28754;47.700;7.924;2022-12-05T06:34:51;3.00;99.90
42615;DHT22;28754;47.700;7.924;2022-12-05T06:37:38;3.00;99.90
42615;DHT22;28754;47.700;7.924;2022-12-05T06:40:24;2.90;99.90
42615;DHT22;28754;47.700;7.924;2022-12-05T06:43:11;2.80;99.90
42615;DHT22;28754;47.700;7.924;2022-12-05T06:45:59;2.80;99.90
42615;DHT22;28754;47.700;7.924;2022-12-05T06:48:52;2.70;99.90
42615;DHT22;28754;47.700;7.924;2022-12-05T06:51:39;2.70;99.90
42615;DHT22;28754;47.700;7.924;2022-12-05T06:54:26;2.60;99.90
42615;DHT22;28754;47.700;7.924;2022-12-05T06:57:12;2.60;99.90
42615;DHT22;28754;47.700;7.924;2022-12-05T06:59:59;2.60;99.90
42615;DHT22;28754;47.700;7.924;2022-12-05T07:03:04;2.60;99.90
42615;DHT22;28754;47.700;7.924;2022-12-05T07:05:51;2.60;99.90
42615;DHT22;28754;47.700;7.924;2022-12-05T07:08:38;2.60;99.90
42615;DHT22;28754;47.700;7.924;2022-12-05T07:11:26;2.70;99.90
42615;DHT22;28754;47.700;7.924;2022-12-05T07:14:13;2.80;99.90
42615;DHT22;28754;47.700;7.924;2022-12-05T07:16:59;2.70;99.90
42615;DHT22;28754;47.700;7.924;2022-12-05T07:19:47;2.80;99.90
42615;DHT22;28754;47.700;7.924;2022-12-05T07:22:36;2.80;99.90
42615;DHT22;28754;47.700;7.924;2022-12-05T07:25:22;2.70;99.90
42615;DHT22;28754;47.700;7.924;2022-12-05T07:28:10;2.80;99.90
42615;DHT22;28754;47.700;7.924;2022-12-05T07:31:08;2.80;99.90
42615;DHT22;28754;47.700;7.924;2022-12-05T07:33:56;2.70;99.90
42615;DHT22;28754;47.700;7.924;2022-12-05T07:36:43;2.70;99.90
42615;DHT22;28754;47.700;7.924;2022-12-05T07:39:31;2.70;99.90
42615;DHT22;28754;47.700;7.924;2022-12-05T07:42:18;2.60;99.90
42615;DHT22;28754;47.700;7.924;2022-12-05T07:45:05;2.60;99.90
42615;DHT22;28754;47.700;7.924;2022-12-05T07:47:52;2.60;99.90
42615;DHT22;28754;47.700;7.924;2022-12-05T07:50:39;2.50;99.90
42615;DHT22;28754;47.700;7.924;2022-12-05T07:53:26;2.60;99.90
42615;DHT22;28754;47.700;7.924;2022-12-05T07:56:15;2.50;99.90
42615;DHT22;28754;47.700;7.924;2022-12-05T07:59:02;2.40;99.90
42615;DHT22;28754;47.700;7.924;2022-12-05T08:01:49;2.50;99.90
42615;DHT22;28754;47.700;7.924;2022-12-05T08:04:36;2.60;99.90
42615;DHT22;28754;47.700;7.924;2022-12-05T08:07:22;2.70;99.90
42615;DHT22;28754;47.700;7.924;2022-12-05T08:10:09;2.80;99.90
42615;DHT22;28754;47.700;7.924;2022-12-05T08:12:56;2.90;99.90
42615;DHT22;28754;47.700;7.924;2022-12-05T08:15:42;2.90;99.90
42615;DHT22;28754;47.700;7.924;2022-12-05T08:18:30;3.00;99.90
42615;DHT22;28754;47.700;7.924;2022-12-05T08:21:18;2.90;99.90
42615;DHT22;28754;47.700;7.924;2022-12-05T08:24:06;2.90;99.90
42615;DHT22;28754;47.700;7.924;2022-12-05T08:26:53;3.10;99.90
42615;DHT22;28754;47.700;7.924;2022-12-05T08:29:39;3.10;99.90
42615;DHT22;28754;47.700;7.924;2022-12-05T08:32:27;3.20;99.90
42615;DHT22;28754;47.700;7.924;2022-12-05T08:35:13;3.20;99.90
42615;DHT22;28754;47.700;7.924;2022-12-05T08:38:01;3.20;99.90
42615;DHT22;28754;47.700;7.924;2022-12-05T08:40:48;3.10;99.90
42615;DHT22;28754;47.700;7.924;2022-12-05T08:43:35;3.10;99.90
42615;DHT22;28754;47.700;7.924;2022-12-05T08:46:22;3.10;99.90
42615;DHT22;28754;47.700;7.924;2022-12-05T08:49:10;3.30;99.90
42615;DHT22;28754;47.700;7.924;2022-12-05T08:51:57;3.50;99.90
42615;DHT22;28754;47.700;7.924;2022-12-05T08:54:44;3.70;99.90
42615;DHT22;28754;47.700;7.924;2022-12-05T08:57:30;3.90;99.90
42615;DHT22;28754;47.700;7.924;2022-12-05T09:00:17;4.00;99.90
42615;DHT22;28754;47.700;7.924;2022-12-05T09:03:04;4.00;99.90
42615;DHT22;28754;47.700;7.924;2022-12-05T09:05:52;3.80;99.90
42615;DHT22;28754;47.700;7.924;2022-12-05T09:08:39;3.70;99.90
42615;DHT22;28754;47.700;7.924;2022-12-05T09:11:30;3.50;99.90
42615;DHT22;28754;47.700;7.924;2022-12-05T09:14:18;3.40;99.90
42615;DHT22;28754;47.700;7.924;2022-12-05T09:17:05;3.60;99.90
42615;DHT22;28754;47.700;7.924;2022-12-05T09:19:53;3.80;99.90
42615;DHT22;28754;47.700;7.924;2022-12-05T09:22:40;3.90;99.90
42615;DHT22;28754;47.700;7.924;2022-12-05T09:25:26;4.00;99.90
42615;DHT22;28754;47.700;7.924;2022-12-05T09:28:13;4.00;99.90
42615;DHT22;28754;47.700;7.924;2022-12-05T09:31:06;4.10;99.90
42615;DHT22;28754;47.700;7.924;2022-12-05T09:33:55;4.00;99.90
42615;DHT22;28754;47.700;7.924;2022-12-05T09:36:41;3.90;99.90
42615;DHT22;28754;47.700;7.924;2022-12-05T09:39:29;3.80;99.90
42615;DHT22;28754;47.700;7.924;2022-12-05T09:45:36;3.80;99.90
42615;DHT22;28754;47.700;7.924;2022-12-05T09:48:29;3.60;99.90
42615;DHT22;28754;47.700;7.924;2022-12-05T09:51:20;3.60;99.90
42615;DHT22;28754;47.700;7.924;2022-12-05T09:54:08;3.70;99.90
42615;DHT22;28754;47.700;7.924;2022-12-05T09:56:56;3.70;99.90
42615;DHT22;28754;47.700;7.924;2022-12-05T09:59:43;3.80;99.90
42615;DHT22;28754;47.700;7.924;2022-12-05T10:02:41;3.90;99.90
42615;DHT22;28754;47.700;7.924;2022-12-05T10:05:55;4.10;99.90
42615;DHT22;28754;47.700;7.924;2022-12-05T10:15:35;4.30;99.90
42615;DHT22;28754;47.700;7.924;2022-12-05T10:24:43;4.40;99.90
42615;DHT22;28754;47.700;7.924;2022-12-05T10:27:41;4.20;99.90
42615;DHT22;28754;47.700;7.924;2022-12-05T10:30:39;4.30;99.90
42615;DHT22;28754;47.700;7.924;2022-12-05T10:33:32;4.30;99.90
42615;DHT22;28754;47.700;7.924;2022-12-05T10:37:00;4.40;99.90
42615;DHT22;28754;47.700;7.924;2022-12-05T10:39:54;4.30;99.90
42615;DHT22;28754;47.700;7.924;2022-12-05T10:42:41;4.30;99.90
42615;DHT22;28754;47.700;7.924;2022-12-05T10:45:28;4.50;99.90
42615;DHT22;28754;47.700;7.924;2022-12-05T10:48:17;4.60;99.90
42615;DHT22;28754;47.700;7.924;2022-12-05T10:51:06;4.50;99.90
42615;DHT22;28754;47.700;7.924;2022-12-05T10:53:59;4.40;99.90
42615;DHT22;28754;47.700;7.924;2022-12-05T10:56:48;4.20;99.90
42615;DHT22;28754;47.700;7.924;2022-12-05T10:59:45;4.20;99.90
42615;DHT22;28754;47.700;7.924;2022-12-05T11:02:32;4.30;99.90
42615;DHT22;28754;47.700;7.924;2022-12-05T11:05:27;4.40;99.90
42615;DHT22;28754;47.700;7.924;2022-12-05T11:08:22;4.10;99.90
42615;DHT22;28754;47.700;7.924;2022-12-05T11:11:18;4.30;99.90
42615;DHT22;28754;47.700;7.924;2022-12-05T11:14:21;4.50;99.90
42615;DHT22;28754;47.700;7.924;2022-12-05T11:17:26;4.80;99.90
42615;DHT22;28754;47.700;7.924;2022-12-05T11:23:23;4.60;99.90
42615;DHT22;28754;47.700;7.924;2022-12-05T11:26:33;4.60;99.90
42615;DHT22;28754;47.700;7.924;2022-12-05T11:29:35;4.80;99.90
42615;DHT22;28754;47.700;7.924;2022-12-05T11:32:26;5.00;99.90
42615;DHT22;28754;47.700;7.924;2022-12-05T11:35:24;5.20;99.90
42615;DHT22;28754;47.700;7.924;2022-12-05T11:38:15;5.30;99.90
42615;DHT22;28754;47.700;7.924;2022-12-05T12:07:36;6.20;99.90
42615;DHT22;28754;47.700;7.924;2022-12-05T12:14:24;5.70;99.90
42615;DHT22;28754;47.700;7.924;2022-12-05T12:36:54;7.80;99.90
42615;DHT22;28754;47.700;7.924;2022-12-05T12:46:52;8.80;99.90
42615;DHT22;28754;47.700;7.924;2022-12-05T13:00:26;8.80;99.90
42615;DHT22;28754;47.700;7.924;2022-12-05T13:03:27;7.70;99.90
42615;DHT22;28754;47.700;7.924;2022-12-05T13:06:48;7.20;99.90
42615;DHT22;28754;47.700;7.924;2022-12-05T13:09:41;7.40;99.90
42615;DHT22;28754;47.700;7.924;2022-12-05T13:12:36;7.90;99.90
42615;DHT22;28754;47.700;7.924;2022-12-05T13:15:43;7.30;99.90
42615;DHT22;28754;47.700;7.924;2022-12-05T13:18:43;8.40;99.90
42615;DHT22;28754;47.700;7.924;2022-12-05T13:21:30;8.30;99.90
42615;DHT22;28754;47.700;7.924;2022-12-05T13:24:19;8.20;99.90
42615;DHT22;28754;47.700;7.924;2022-12-05T13:27:16;7.70;99.90
42615;DHT22;28754;47.700;7.924;2022-12-05T13:30:04;6.80;99.90
42615;DHT22;28754;47.700;7.924;2022-12-05T13:32:55;5.90;99.90
42615;DHT22;28754;47.700;7.924;2022-12-05T13:35:44;5.40;99.90
42615;DHT22;28754;47.700;7.924;2022-12-05T13:38:55;5.10;99.90
42615;DHT22;28754;47.700;7.924;2022-12-05T13:42:25;4.90;99.90
42615;DHT22;28754;47.700;7.924;2022-12-05T13:45:18;4.80;99.90
42615;DHT22;28754;47.700;7.924;2022-12-05T13:48:17;5.00;99.90
42615;DHT22;28754;47.700;7.924;2022-12-05T13:54:21;5.70;99.90
42615;DHT22;28754;47.700;7.924;2022-12-05T14:00:27;5.60;99.90
42615;DHT22;28754;47.700;7.924;2022-12-05T14:09:50;5.80;99.90
42615;DHT22;28754;47.700;7.924;2022-12-05T14:13:00;6.00;99.90
42615;DHT22;28754;47.700;7.924;2022-12-05T14:15:50;5.90;99.90
42615;DHT22;28754;47.700;7.924;2022-12-05T14:18:46;5.70;99.90
42615;DHT22;28754;47.700;7.924;2022-12-05T14:22:02;5.40;99.90
42615;DHT22;28754;47.700;7.924;2022-12-05T14:26:02;5.30;99.90
42615;DHT22;28754;47.700;7.924;2022-12-05T14:28:37;5.00;99.90
42615;DHT22;28754;47.700;7.924;2022-12-05T14:34:36;4.60;99.90
42615;DHT22;28754;47.700;7.924;2022-12-05T14:37:41;4.60;99.90
42615;DHT22;28754;47.700;7.924;2022-12-05T14:40:41;4.50;99.90
42615;DHT22;28754;47.700;7.924;2022-12-05T14:43:32;4.30;99.90
42615;DHT22;28754;47.700;7.924;2022-12-05T14:46:26;4.10;99.90
42615;DHT22;28754;47.700;7.924;2022-12-05T14:49:52;4.10;99.90
42615;DHT22;28754;47.700;7.924;2022-12-05T14:53:14;3.80;99.90
42615;DHT22;28754;47.700;7.924;2022-12-05T14:56:19;3.90;99.90
42615;DHT22;28754;47.700;7.924;2022-12-05T14:59:31;3.90;99.90
42615;DHT22;28754;47.700;7.924;2022-12-05T15:02:36;3.70;99.90
42615;DHT22;28754;47.700;7.924;2022-12-05T15:05:31;3.60;99.90
42615;DHT22;28754;47.700;7.924;2022-12-05T15:08:19;3.50;99.90
42615;DHT22;28754;47.700;7.924;2022-12-05T15:11:12;3.30;99.90
42615;DHT22;28754;47.700;7.924;2022-12-05T15:14:19;3.20;99.90
42615;DHT22;28754;47.700;7.924;2022-12-05T15:17:14;3.20;99.90
42615;DHT22;28754;47.700;7.924;2022-12-05T15:26:48;2.80;99.90
42615;DHT22;28754;47.700;7.924;2022-12-05T15:29:39;2.70;99.90
42615;DHT22;28754;47.700;7.924;2022-12-05T15:32:27;2.60;99.90
42615;DHT22;28754;47.700;7.924;2022-12-05T15:35:14;2.60;99.90
42615;DHT22;28754;47.700;7.924;2022-12-05T15:38:06;2.70;99.90
42615;DHT22;28754;47.700;7.924;2022-12-05T15:41:18;2.60;99.90
42615;DHT22;28754;47.700;7.924;2022-12-05T15:44:04;2.60;99.90
42615;DHT22;28754;47.700;7.924;2022-12-05T15:46:52;2.60;99.90
42615;DHT22;28754;47.700;7.924;2022-12-05T15:49:40;2.60;99.90
42615;DHT22;28754;47.700;7.924;2022-12-05T15:53:04;2.50;99.90
42615;DHT22;28754;47.700;7.924;2022-12-05T15:56:17;2.50;99.90
42615;DHT22;28754;47.700;7.924;2022-12-05T16:02:16;2.50;99.90
42615;DHT22;28754;47.700;7.924;2022-12-05T16:05:30;2.60;99.90
42615;DHT22;28754;47.700;7.924;2022-12-05T16:08:21;2.70;99.90
42615;DHT22;28754;47.700;7.924;2022-12-05T16:11:11;2.60;99.90
42615;DHT22;28754;47.700;7.924;2022-12-05T16:14:02;2.60;99.90
42615;DHT22;28754;47.700;7.924;2022-12-05T16:16:56;2.60;99.90
42615;DHT22;28754;47.700;7.924;2022-12-05T16:19:46;2.60;99.90
42615;DHT22;28754;47.700;7.924;2022-12-05T16:22:33;2.60;99.90
42615;DHT22;28754;47.700;7.924;2022-12-05T16:25:26;2.60;99.90
42615;DHT22;28754;47.700;7.924;2022-12-05T16:28:20;2.70;99.90
42615;DHT22;28754;47.700;7.924;2022-12-05T16:31:14;2.80;99.90
42615;DHT22;28754;47.700;7.924;2022-12-05T16:34:11;2.90;99.90
42615;DHT22;28754;47.700;7.924;2022-12-05T16:37:00;2.90;99.90
42615;DHT22;28754;47.700;7.924;2022-12-05T16:39:48;2.80;99.90
42615;DHT22;28754;47.700;7.924;2022-12-05T16:42:34;2.80;99.90
42615;DHT22;28754;47.700;7.924;2022-12-05T16:45:38;2.80;99.90
42615;DHT22;28754;47.700;7.924;2022-12-05T16:48:30;2.80;99.90
42615;DHT22;28754;47.700;7.924;2022-12-05T16:51:19;2.80;99.90
42615;DHT22;28754;47.700;7.924;2022-12-05T16:54:13;2.80;99.90
42615;DHT22;28754;47.700;7.924;2022-12-05T16:57:01;2.70;99.90
42615;DHT22;28754;47.700;7.924;2022-12-05T16:59:48;2.70;99.90
42615;DHT22;28754;47.700;7.924;2022-12-05T17:02:35;2.70;99.90
42615;DHT22;28754;47.700;7.924;2022-12-05T17:10:42;2.80;99.90
42615;DHT22;28754;47.700;7.924;2022-12-05T17:13:30;2.80;99.90
42615;DHT22;28754;47.700;7.924;2022-12-05T17:16:27;2.70;99.90
42615;DHT22;28754;47.700;7.924;2022-12-05T17:19:23;2.60;99.90
42615;DHT22;28754;47.700;7.924;2022-12-05T17:22:18;2.70;99.90
42615;DHT22;28754;47.700;7.924;2022-12-05T17:25:33;2.70;99.90
42615;DHT22;28754;47.700;7.924;2022-12-05T17:28:24;2.70;99.90
42615;DHT22;28754;47.700;7.924;2022-12-05T17:31:19;2.90;99.90
42615;DHT22;28754;47.700;7.924;2022-12-05T17:34:16;3.00;99.90
42615;DHT22;28754;47.700;7.924;2022-12-05T17:37:03;3.10;99.90
42615;DHT22;28754;47.700;7.924;2022-12-05T17:39:49;3.10;99.90
42615;DHT22;28754;47.700;7.924;2022-12-05T17:42:36;3.20;99.90
42615;DHT22;28754;47.700;7.924;2022-12-05T17:45:26;3.20;99.90
42615;DHT22;28754;47.700;7.924;2022-12-05T17:48:17;3.20;99.90
42615;DHT22;28754;47.700;7.924;2022-12-05T17:55:35;3.00;99.90
42615;DHT22;28754;47.700;7.924;2022-12-05T17:58:22;3.00;99.90
42615;DHT22;28754;47.700;7.924;2022-12-05T18:01:17;3.10;99.90
42615;DHT22;28754;47.700;7.924;2022-12-05T18:04:05;3.10;99.90
42615;DHT22;28754;47.700;7.924;2022-12-05T18:06:51;3.10;99.90
42615;DHT22;28754;47.700;7.924;2022-12-05T18:09:38;3.00;99.90
42615;DHT22;28754;47.700;7.924;2022-12-05T18:12:25;3.00;99.90
42615;DHT22;28754;47.700;7.924;2022-12-05T18:15:12;2.90;99.90
42615;DHT22;28754;47.700;7.924;2022-12-05T18:18:00;2.90;99.90
42615;DHT22;28754;47.700;7.924;2022-12-05T18:20:51;2.80;99.90
42615;DHT22;28754;47.700;7.924;2022-12-05T18:23:38;2.90;99.90
42615;DHT22;28754;47.700;7.924;2022-12-05T18:26:26;2.70;99.90
42615;DHT22;28754;47.700;7.924;2022-12-05T18:29:12;2.70;99.90
42615;DHT22;28754;47.700;7.924;2022-12-05T18:32:02;2.60;99.90
42615;DHT22;28754;47.700;7.924;2022-12-05T18:34:51;2.60;99.90
42615;DHT22;28754;47.700;7.924;2022-12-05T18:44:29;2.50;99.90
42615;DHT22;28754;47.700;7.924;2022-12-05T18:47:18;2.50;99.90
42615;DHT22;28754;47.700;7.924;2022-12-05T18:50:07;2.50;99.90
42615;DHT22;28754;47.700;7.924;2022-12-05T18:52:55;2.60;99.90
42615;DHT22;28754;47.700;7.924;2022-12-05T18:55:41;2.60;99.90
42615;DHT22;28754;47.700;7.924;2022-12-05T18:58:28;2.70;99.90
42615;DHT22;28754;47.700;7.924;2022-12-05T19:01:15;2.70;99.90
42615;DHT22;28754;47.700;7.924;2022-12-05T19:04:04;2.70;99.90
42615;DHT22;28754;47.700;7.924;2022-12-05T19:06:53;2.60;99.90
42615;DHT22;28754;47.700;7.924;2022-12-05T19:09:43;2.60;99.90
42615;DHT22;28754;47.700;7.924;2022-12-05T19:12:43;2.60;99.90
42615;DHT22;28754;47.700;7.924;2022-12-05T19:15:30;2.50;99.90
42615;DHT22;28754;47.700;7.924;2022-12-05T19:18:16;2.40;99.90
42615;DHT22;28754;47.700;7.924;2022-12-05T19:21:03;2.50;99.90
42615;DHT22;28754;47.700;7.924;2022-12-05T19:23:50;2.40;99.90
42615;DHT22;28754;47.700;7.924;2022-12-05T19:26:37;2.50;99.90
42615;DHT22;28754;47.700;7.924;2022-12-05T19:29:24;2.50;99.90
42615;DHT22;28754;47.700;7.924;2022-12-05T19:32:11;2.40;99.90
42615;DHT22;28754;47.700;7.924;2022-12-05T19:34:57;2.40;99.90
42615;DHT22;28754;47.700;7.924;2022-12-05T19:37:44;2.40;99.90
42615;DHT22;28754;47.700;7.924;2022-12-05T19:40:31;2.40;99.90
42615;DHT22;28754;47.700;7.924;2022-12-05T19:43:18;2.50;99.90
42615;DHT22;28754;47.700;7.924;2022-12-05T19:46:11;2.40;99.90
42615;DHT22;28754;47.700;7.924;2022-12-05T19:49:04;2.50;99.90
42615;DHT22;28754;47.700;7.924;2022-12-05T19:51:53;2.50;99.90
42615;DHT22;28754;47.700;7.924;2022-12-05T19:54:43;2.50;99.90
42615;DHT22;28754;47.700;7.924;2022-12-05T19:57:30;2.50;99.90
42615;DHT22;28754;47.700;7.924;2022-12-05T20:00:17;2.50;99.90
42615;DHT22;28754;47.700;7.924;2022-12-05T20:03:05;2.50;99.90
42615;DHT22;28754;47.700;7.924;2022-12-05T20:05:56;2.50;99.90
42615;DHT22;28754;47.700;7.924;2022-12-05T20:08:43;2.40;99.90
42615;DHT22;28754;47.700;7.924;2022-12-05T20:11:31;2.30;99.90
42615;DHT22;28754;47.700;7.924;2022-12-05T20:14:18;2.20;99.90
42615;DHT22;28754;47.700;7.924;2022-12-05T20:17:05;2.20;99.90
42615;DHT22;28754;47.700;7.924;2022-12-05T20:19:51;2.30;99.90
42615;DHT22;28754;47.700;7.924;2022-12-05T20:22:38;2.20;99.90
42615;DHT22;28754;47.700;7.924;2022-12-05T20:25:25;2.40;99.90
42615;DHT22;28754;47.700;7.924;2022-12-05T20:28:11;2.40;99.90
42615;DHT22;28754;47.700;7.924;2022-12-05T20:31:03;2.40;99.90
42615;DHT22;28754;47.700;7.924;2022-12-05T20:33:51;2.40;99.90
42615;DHT22;28754;47.700;7.924;2022-12-05T20:36:39;2.40;99.90
42615;DHT22;28754;47.700;7.924;2022-12-05T20:39:26;2.40;99.90
42615;DHT22;28754;47.700;7.924;2022-12-05T20:42:14;2.50;99.90
42615;DHT22;28754;47.700;7.924;2022-12-05T20:45:01;2.50;99.90
42615;DHT22;28754;47.700;7.924;2022-12-05T20:47:48;2.60;99.90
42615;DHT22;28754;47.700;7.924;2022-12-05T20:50:39;2.50;99.90
42615;DHT22;28754;47.700;7.924;2022-12-05T20:53:25;2.30;99.90
42615;DHT22;28754;47.700;7.924;2022-12-05T20:56:15;2.40;99.90
42615;DHT22;28754;47.700;7.924;2022-12-05T20:59:05;2.50;99.90
42615;DHT22;28754;47.700;7.924;2022-12-05T21:01:53;2.60;99.90
42615;DHT22;28754;47.700;7.924;2022-12-05T21:04:40;2.60;99.90
42615;DHT22;28754;47.700;7.924;2022-12-05T21:07:26;2.60;99.90
42615;DHT22;28754;47.700;7.924;2022-12-05T21:10:13;2.50;99.90
42615;DHT22;28754;47.700;7.924;2022-12-05T21:23:19;2.50;99.90
42615;DHT22;28754;47.700;7.924;2022-12-05T22:41:48;2.00;99.90